Aviation Digital Data Service (ADDS)

Output produced by METARs form (2209 UTC 05 February 2016)
found at http://www.aviationweather.gov/adds/metars/
 
KUNV 052153Z 27015KT 10SM SCT049 00/M09 A3029
KUNV 052053Z 30009G19KT 10SM SCT080 01/M09 A3026
KUNV 051953Z 31009G14KT 10SM SCT047 02/M08 A3024
KUNV 051853Z 32009G15KT 10SM BKN041 01/M08 A3023
KUNV 051753Z 31010G19KT 10SM SCT030 SCT037 OVC045 00/M08 A3023
KUNV 051653Z 29011G17KT 10SM SCT013 BKN037 OVC055 00/M05 A3024
KUNV 051553Z 32007G17KT 10SM SCT018 BKN026 OVC039 00/M05 A3023
KUNV 051453Z 33015KT 10SM SCT070 01/M07 A3022
KUNV 051353Z 32012KT 10SM SCT030 BKN060 00/M06 A3019
KUNV 051253Z 32012KT 10SM SCT024 OVC060 00/M05 A3017
KUNV 051153Z 34008KT 7SM SCT028 OVC060 00/M05 A3019
KUNV 051053Z 33010KT 7SM -SN SCT036 OVC043 00/M05 A3013
KUNV 051035Z AUTO 34011G14KT 10SM -SN OVC043 00/M05 A3014 RMK AO2 T00031050
KUNV 051015Z AUTO 33009KT 10SM BKN045 OVC060 00/M05 A3013 RMK AO2 T00031046
KUNV 050955Z AUTO 34005KT 10SM SCT045 OVC050 01/M04 A3013 RMK AO2 T00051043
KUNV 050935Z AUTO 32006KT 10SM SCT042 SCT048 OVC050 01/M04 A3012 RMK AO2 T00051038
KUNV 050915Z AUTO 33008KT 10SM OVC046 01/M04 A3010 RMK AO2 T00061037
KUNV 050855Z AUTO 33006KT 10SM OVC044 01/M03 A3010 RMK AO2 T00071034
KUNV 050835Z AUTO 32005KT 10SM OVC044 01/M03 A3012 RMK AO2 T00081033
KUNV 050815Z AUTO 30004KT 10SM BKN048 OVC050 01/M03 A3013 RMK AO2 T00081033
KUNV 050755Z AUTO 33007KT 10SM BKN050 OVC110 01/M03 A3010 RMK AO2 T00091032
KUNV 050735Z AUTO 30003KT 10SM BKN060 OVC100 01/M03 A3012 RMK AO2 T00101033
KUNV 050715Z AUTO 30006KT 10SM OVC050 01/M03 A3010 RMK AO2 T00101033
KUNV 050655Z AUTO 31006KT 10SM OVC050 01/M03 A3010 RMK AO2 T00121035
KUNV 050635Z AUTO 30008KT 10SM OVC050 01/M03 A3012 RMK AO2 T00131035
KUNV 050615Z AUTO 31006KT 10SM OVC050 02/M03 A3011 RMK AO2 T00151035
KUNV 050555Z AUTO 32006KT 10SM OVC050 02/M03 A3012 RMK AO2 T00151035 10033 20015
KUNV 050535Z AUTO 30004KT 10SM OVC050 02/M04 A3012 RMK AO2 T00151036
KUNV 050515Z AUTO 30003KT 10SM OVC050 02/M04 A3013 RMK AO2 T00161036
KUNV 050455Z AUTO 31003KT 10SM OVC048 02/M03 A3013 RMK AO2 T00161035
KUNV 050435Z AUTO 30004KT 10SM OVC048 02/M03 A3014 RMK AO2 T00171035
KUNV 050415Z AUTO 30005KT 10SM OVC046 02/M04 A3013 RMK AO2 T00191036
KUNV 050355Z AUTO 30004KT 10SM OVC046 02/M03 A3014 RMK AO2 T00191035 400660019
KUNV 050335Z AUTO 30005KT 10SM OVC048 02/M04 A3013 RMK AO2 T00211037
KUNV 050315Z AUTO 29004KT 10SM OVC048 02/M04 A3013 RMK AO2 T00211036
KUNV 050255Z AUTO 30004KT 10SM OVC048 02/M04 A3013 RMK AO2 T00221036
KUNV 050153Z 31005KT 10SM OVC044 02/M04 A3012
KUNV 050053Z 30004KT 10SM OVC044 03/M04 A3012
KUNV 042353Z 31005KT 10SM OVC048 03/M06 A3011
KUNV 042253Z 31005KT 10SM OVC044 04/M05 A3009
KUNV 042153Z 35007KT 10SM BKN044 04/M05 A3008
KUNV 042053Z 31006KT 10SM BKN046 05/M05 A3006
KUNV 041953Z 30010KT 10SM BKN044 04/M05 A3003
KUNV 041853Z 31010G17KT 10SM OVC040 04/M04 A3007
KUNV 041753Z 30010G17KT 10SM OVC038 04/M03 A3008
KUNV 041653Z 30010KT 10SM OVC038 04/M02 A3009
KUNV 041553Z 28010KT 10SM OVC037 04/M02 A3010
KUNV 041453Z 29012KT 10SM BKN041 03/M03 A3010
KUNV 041353Z 29012KT 10SM SCT025 SCT043 03/M03 A3008
KUNV 041253Z 29012KT 10SM SCT025 03/M03 A3005
KUNV 041153Z 28010KT 10SM SCT045 03/M02 A3004
KUNV 041053Z 28015KT 10SM SKC 04/M01 A3001
KUNV 041035Z AUTO 28012G17KT 10SM SCT080 04/00 A3000 RMK AO2 T00381003
KUNV 041015Z AUTO 26009G14KT 10SM SCT080 04/00 A3000 RMK AO2 T00410000